Time;durP1;ratioP1;P1;durP2;ratioP2;P2;SDS_P1;SDS_P2;PMS_P1;PMS_P2;Temp;Humidity;BMP_temperature;BMP_pressure;BME280_temperature;BME280_humidity;BME280_pressure;Samples;Min_cycle;Max_cycle;Signal;HPM_P1;HPM_P2
2023/05/17 00:00:29;;;;;;;9.27;2.03;;;;;;;10.90;100.00;102048.78;4989937;28;20062;-68
2023/05/17 00:02:56;;;;;;;6.85;1.50;;;;;;;10.93;100.00;102043.50;4975048;28;20131;-68
2023/05/17 00:05:23;;;;;;;5.63;1.38;;;;;;;11.01;100.00;102042.47;4967543;28;20133;-68
2023/05/17 00:07:50;;;;;;;7.63;1.27;;;;;;;11.06;100.00;102052.84;4996263;28;20042;-68
2023/05/17 00:10:17;;;;;;;7.93;1.88;;;;;;;10.94;100.00;102053.97;4997720;28;20050;-68
2023/05/17 00:12:43;;;;;;;6.47;1.50;;;;;;;10.98;100.00;102053.00;4990583;28;20387;-68
2023/05/17 00:15:10;;;;;;;6.50;1.58;;;;;;;10.88;100.00;102040.09;4991471;28;20133;-68
2023/05/17 00:17:37;;;;;;;10.25;1.67;;;;;;;10.90;100.00;102049.66;4989626;28;20130;-68
2023/05/17 00:20:05;;;;;;;6.80;1.25;;;;;;;10.81;100.00;102015.75;4989895;28;20069;-68
2023/05/17 00:22:32;;;;;;;8.80;1.52;;;;;;;10.81;100.00;102034.94;4990214;28;20046;-68
2023/05/17 00:24:58;;;;;;;6.63;1.30;;;;;;;10.88;100.00;102042.72;4994989;28;20051;-68
2023/05/17 00:27:25;;;;;;;6.72;1.48;;;;;;;10.86;100.00;102039.25;4996428;28;20128;-68
2023/05/17 00:29:52;;;;;;;8.10;1.58;;;;;;;10.76;100.00;102055.13;4996367;28;20056;-68
2023/05/17 00:32:18;;;;;;;4.63;1.15;;;;;;;10.45;100.00;102010.28;4996870;28;20046;-68
2023/05/17 00:34:45;;;;;;;8.70;1.50;;;;;;;10.70;100.00;102039.53;4995244;28;20054;-68
2023/05/17 00:37:12;;;;;;;8.90;1.95;;;;;;;10.75;100.00;102048.19;4996429;28;20050;-68
2023/05/17 00:39:39;;;;;;;6.38;1.48;;;;;;;10.74;100.00;102050.81;4996781;28;20128;-68
2023/05/17 00:42:05;;;;;;;6.57;1.50;;;;;;;10.59;100.00;102042.34;4978787;28;20050;-68
2023/05/17 00:44:32;;;;;;;9.43;1.35;;;;;;;10.73;100.00;102043.84;4995158;28;20047;-68
2023/05/17 00:46:59;;;;;;;7.38;1.30;;;;;;;10.60;100.00;102045.81;4995741;28;20069;-68
2023/05/17 00:49:26;;;;;;;6.68;1.55;;;;;;;10.49;100.00;102032.91;4995819;28;20054;-68
2023/05/17 00:51:53;;;;;;;4.97;1.23;;;;;;;10.58;100.00;102050.22;4996591;28;20046;-68
2023/05/17 00:54:21;;;;;;;7.03;1.38;;;;;;;10.58;100.00;102051.06;4995318;28;20508;-68
2023/05/17 00:56:48;;;;;;;8.45;1.63;;;;;;;10.43;100.00;102048.72;4995236;28;20050;-68
2023/05/17 00:59:16;;;;;;;8.93;1.73;;;;;;;10.52;100.00;102061.66;4995671;28;20054;-68
2023/05/17 01:01:44;;;;;;;10.68;1.40;;;;;;;10.60;100.00;102065.00;4995603;28;20142;-68
2023/05/17 01:04:10;;;;;;;9.43;1.88;;;;;;;10.43;100.00;102054.81;4994664;28;20129;-68
2023/05/17 01:06:37;;;;;;;9.65;1.60;;;;;;;10.52;100.00;102043.31;4995666;28;20057;-68
2023/05/17 01:09:05;;;;;;;12.07;2.13;;;;;;;10.59;100.00;102060.66;4995998;28;20499;-68
2023/05/17 01:11:55;;;;;;;9.82;1.67;;;;;;;10.61;100.00;102053.66;4996232;28;20137;-68
2023/05/17 01:14:30;;;;;;;7.90;1.58;;;;;;;10.57;100.00;102057.22;4995132;28;20050;-68
2023/05/17 01:17:03;;;;;;;14.68;2.03;;;;;;;10.48;100.00;102046.88;4996107;28;20090;-68
2023/05/17 01:19:48;;;;;;;8.68;1.60;;;;;;;10.49;100.00;102064.31;4995918;28;20415;-68
2023/05/17 01:22:59;;;;;;;7.35;1.58;;;;;;;10.57;100.00;102070.31;4995367;28;20667;-68
2023/05/17 01:25:51;;;;;;;7.72;1.45;;;;;;;10.43;100.00;102054.81;4967202;28;20050;-68
2023/05/17 01:28:21;;;;;;;7.20;1.65;;;;;;;10.47;100.00;102063.47;4996122;28;20795;-68
2023/05/17 01:30:50;;;;;;;7.70;1.55;;;;;;;10.46;100.00;102040.78;4996548;28;20082;-68
2023/05/17 01:33:20;;;;;;;5.97;1.33;;;;;;;10.46;100.00;102046.03;4995412;28;20049;-68
2023/05/17 01:35:47;;;;;;;8.10;1.20;;;;;;;10.55;100.00;102038.03;4994432;28;20476;-68
2023/05/17 01:38:13;;;;;;;5.60;1.35;;;;;;;10.56;100.00;102055.47;4993149;28;20060;-68
2023/05/17 01:40:51;;;;;;;5.35;1.42;;;;;;;10.58;100.00;102045.84;4993067;28;20054;-68
2023/05/17 01:43:30;;;;;;;6.25;1.40;;;;;;;10.63;100.00;102046.63;4980795;28;20039;-68
2023/05/17 01:46:13;;;;;;;3.83;1.27;;;;;;;10.60;100.00;102037.94;4992644;28;20062;-68
2023/05/17 01:48:48;;;;;;;7.38;1.38;;;;;;;10.68;100.00;102037.81;4990878;28;20096;-68
2023/05/17 01:51:19;;;;;;;6.85;1.30;;;;;;;10.71;100.00;102053.47;4993083;28;20499;-68
2023/05/17 01:53:52;;;;;;;4.07;1.20;;;;;;;10.72;100.00;102037.75;4979187;28;20061;-68
2023/05/17 01:56:20;;;;;;;;;;;;;;;10.85;100.00;102054.09;4975598;28;20085;-68
2023/05/17 01:58:47;;;;;;;10.60;2.30;;;;;;;10.75;100.00;102049.94;4992385;28;20433;-68
2023/05/17 02:01:17;;;;;;;5.43;1.30;;;;;;;10.49;100.00;102032.03;4992657;28;20157;-68
2023/05/17 02:03:52;;;;;;;4.07;1.13;;;;;;;10.60;100.00;102044.03;4993898;28;20064;-68
2023/05/17 02:06:19;;;;;;;4.65;1.40;;;;;;;10.62;100.00;102049.25;4992086;28;20101;-68
2023/05/17 02:08:46;;;;;;;8.27;1.55;;;;;;;10.58;100.00;102044.97;4992010;28;20064;-68
2023/05/17 02:11:13;;;;;;;6.25;1.65;;;;;;;10.73;100.00;102039.47;4992147;28;20445;-68
2023/05/17 02:13:39;;;;;;;6.78;1.65;;;;;;;10.69;100.00;102050.03;4986868;28;20050;-68
2023/05/17 02:16:06;;;;;;;5.28;1.98;;;;;;;10.62;100.00;102041.41;4990878;28;20053;-68
2023/05/17 02:18:34;;;;;;;9.80;1.95;;;;;;;10.78;100.00;102028.91;4991000;28;20050;-68
2023/05/17 02:21:01;;;;;;;7.00;1.42;;;;;;;10.71;100.00;102043.00;4991807;28;20062;-67
2023/05/17 02:23:28;;;;;;;7.05;1.50;;;;;;;10.74;100.00;102038.56;4992610;28;20121;-69
2023/05/17 02:25:54;;;;;;;8.70;2.22;;;;;;;10.79;100.00;102049.84;4990752;28;20050;-68
2023/05/17 02:28:21;;;;;;;6.25;1.52;;;;;;;10.72;100.00;102034.28;4991314;28;20396;-68
2023/05/17 02:30:48;;;;;;;5.65;1.73;;;;;;;10.88;100.00;102038.34;4991066;28;20672;-68
2023/05/17 02:33:15;;;;;;;8.73;1.50;;;;;;;10.72;100.00;102034.28;4991014;28;20051;-68
2023/05/17 02:35:41;;;;;;;8.27;1.67;;;;;;;10.61;100.00;102039.69;4990926;28;20062;-68
2023/05/17 02:38:08;;;;;;;6.03;1.60;;;;;;;10.83;100.00;102045.41;4991421;28;20153;-68
2023/05/17 02:40:35;;;;;;;4.43;1.50;;;;;;;10.83;100.00;102034.94;4991949;28;20077;-68
2023/05/17 02:43:02;;;;;;;12.65;1.63;;;;;;;10.82;100.00;102047.19;4980015;28;20143;-68
2023/05/17 02:45:29;;;;;;;8.20;1.85;;;;;;;10.78;100.00;102032.41;4990776;28;20092;-68
2023/05/17 02:47:56;;;;;;;5.47;1.40;;;;;;;10.76;100.00;102022.84;4988544;28;20505;-68
2023/05/17 02:50:23;;;;;;;6.82;1.60;;;;;;;10.52;100.00;102030.22;4991968;28;20092;-68
2023/05/17 02:52:49;;;;;;;6.70;1.33;;;;;;;10.47;100.00;102024.22;4991573;28;20046;-68
2023/05/17 02:55:16;;;;;;;6.53;1.67;;;;;;;10.35;100.00;102024.41;4990420;28;20050;-68
2023/05/17 02:57:43;;;;;;;8.98;1.70;;;;;;;10.34;100.00;102026.16;4991189;28;20093;-68
2023/05/17 03:00:10;;;;;;;9.35;1.67;;;;;;;10.36;100.00;102031.38;4991641;28;20053;-68
2023/05/17 03:02:37;;;;;;;9.27;1.98;;;;;;;10.36;100.00;102029.63;4986606;28;20075;-68
2023/05/17 03:05:04;;;;;;;6.55;1.80;;;;;;;10.22;100.00;102021.09;4983610;28;20129;-68
2023/05/17 03:07:31;;;;;;;8.63;1.92;;;;;;;10.19;100.00;102015.91;4991198;28;20054;-68
2023/05/17 03:09:57;;;;;;;7.70;1.60;;;;;;;10.17;100.00;101992.34;4991580;28;20082;-68
2023/05/17 03:12:24;;;;;;;7.43;1.75;;;;;;;10.44;100.00;102024.25;4991365;28;20060;-68
2023/05/17 03:14:53;;;;;;;8.82;1.58;;;;;;;10.52;100.00;102022.38;4990461;28;20077;-68
2023/05/17 03:17:20;;;;;;;14.85;2.75;;;;;;;10.47;100.00;102013.72;4986521;28;20189;-68
2023/05/17 03:19:47;;;;;;;8.57;1.63;;;;;;;10.37;100.00;102020.00;4971252;28;20089;-68
2023/05/17 03:22:13;;;;;;;6.53;1.77;;;;;;;10.31;100.00;102007.00;4974803;28;20421;-68
2023/05/17 03:24:40;;;;;;;5.57;1.40;;;;;;;10.56;100.00;102015.34;4985121;28;20039;-68
2023/05/17 03:27:07;;;;;;;7.40;1.52;;;;;;;10.59;100.00;102016.16;4977866;28;20053;-68
2023/05/17 03:29:34;;;;;;;9.80;1.60;;;;;;;10.53;100.00;102010.13;4993278;28;20733;-68
2023/05/17 03:32:01;;;;;;;7.22;1.85;;;;;;;10.31;100.00;102010.50;4990622;28;20061;-68
2023/05/17 03:34:28;;;;;;;8.68;1.65;;;;;;;10.22;100.00;102015.84;4985371;28;20125;-68
2023/05/17 03:36:55;;;;;;;6.32;1.65;;;;;;;10.25;100.00;102024.53;4980900;28;20089;-68
2023/05/17 03:39:22;;;;;;;9.85;2.15;;;;;;;10.23;100.00;102013.22;4990273;28;20692;-68
2023/05/17 03:41:49;;;;;;;6.38;1.50;;;;;;;10.22;100.00;102023.72;4990938;28;20046;-68
2023/05/17 03:44:16;;;;;;;6.75;1.75;;;;;;;10.26;100.00;102007.06;4989430;28;20046;-68
2023/05/17 03:46:43;;;;;;;11.70;1.88;;;;;;;10.47;100.00;102010.25;4990388;28;20054;-68
2023/05/17 03:49:10;;;;;;;6.95;1.77;;;;;;;10.51;100.00;101996.22;4989527;28;20053;-68
2023/05/17 03:51:37;;;;;;;5.72;1.52;;;;;;;10.60;100.00;101999.53;4986115;28;20074;-68
2023/05/17 03:54:04;;;;;;;5.97;1.83;;;;;;;10.60;100.00;102003.91;4980624;28;20052;-68
2023/05/17 03:56:31;;;;;;;8.95;1.30;;;;;;;10.57;100.00;101990.84;4990762;28;20484;-68
2023/05/17 03:58:58;;;;;;;6.28;1.60;;;;;;;10.61;100.00;102001.25;4989883;28;20050;-68
2023/05/17 04:01:24;;;;;;;5.85;1.48;;;;;;;10.69;100.00;102006.34;4990216;28;20066;-68
2023/05/17 04:03:51;;;;;;;8.38;1.58;;;;;;;10.68;100.00;102007.25;4989981;28;20157;-68
2023/05/17 04:06:18;;;;;;;11.63;1.70;;;;;;;10.58;100.00;101988.22;4990753;28;20113;-67
2023/05/17 04:08:45;;;;;;;8.05;1.60;;;;;;;10.74;100.00;102001.03;4992380;28;20058;-67
2023/05/17 04:11:14;;;;;;;7.88;1.98;;;;;;;10.64;100.00;102005.56;4989422;28;20053;-67
2023/05/17 04:13:41;;;;;;;6.82;1.60;;;;;;;10.81;100.00;102006.13;4989580;28;20522;-67
2023/05/17 04:16:08;;;;;;;7.55;1.50;;;;;;;10.83;100.00;102006.09;4989505;28;20101;-67
2023/05/17 04:18:36;;;;;;;8.00;1.73;;;;;;;10.87;100.00;102012.16;4989647;28;20053;-68
2023/05/17 04:21:04;;;;;;;5.32;1.45;;;;;;;10.89;100.00;101999.88;4990183;28;20388;-67
2023/05/17 04:23:33;;;;;;;6.68;1.50;;;;;;;11.10;100.00;102007.38;4989367;28;20468;-67
2023/05/17 04:25:59;;;;;;;12.30;1.90;;;;;;;10.95;100.00;101997.16;4981498;28;20054;-67
2023/05/17 04:28:26;;;;;;;12.75;2.28;;;;;;;10.69;100.00;101995.03;4982973;28;20081;-68
2023/05/17 04:30:54;;;;;;;6.35;1.67;;;;;;;10.49;100.00;101991.00;4989798;28;20453;-67
2023/05/17 04:33:23;;;;;;;9.88;1.50;;;;;;;10.81;100.00;101994.81;4989440;28;20061;-68
2023/05/17 04:35:53;;;;;;;12.98;1.80;;;;;;;10.82;100.00;101999.16;4988327;28;20157;-67
2023/05/17 04:38:20;;;;;;;7.13;1.50;;;;;;;10.78;100.00;101987.00;4989902;28;20089;-67
2023/05/17 04:40:47;;;;;;;14.32;2.05;;;;;;;10.80;100.00;101996.56;4989878;28;20141;-67
2023/05/17 04:43:14;;;;;;;6.47;1.45;;;;;;;10.94;100.00;102011.16;4988571;28;20141;-67
2023/05/17 04:45:41;;;;;;;6.50;1.70;;;;;;;11.08;100.00;102003.88;4987370;28;20080;-67
2023/05/17 04:48:07;;;;;;;9.90;2.33;;;;;;;11.06;100.00;102002.19;4989332;28;20057;-67
2023/05/17 04:50:34;;;;;;;12.93;1.70;;;;;;;10.98;100.00;102012.84;4989817;28;20062;-67
2023/05/17 04:53:01;;;;;;;7.13;1.90;;;;;;;11.16;100.00;102012.47;4989131;28;20097;-68
2023/05/17 04:55:28;;;;;;;8.05;1.52;;;;;;;11.17;100.00;102000.22;4989324;28;20061;-68
2023/05/17 04:57:55;;;;;;;10.25;1.83;;;;;;;11.12;100.00;102004.69;4989470;28;20117;-67
2023/05/17 05:00:22;;;;;;;8.10;1.63;;;;;;;11.20;100.00;102005.41;4990323;28;20461;-67
2023/05/17 05:02:49;;;;;;;7.72;1.50;;;;;;;11.20;100.00;102008.03;4989773;28;20137;-67
2023/05/17 05:05:16;;;;;;;9.23;2.28;;;;;;;11.17;100.00;102011.59;4989252;28;20420;-68
2023/05/17 05:07:43;;;;;;;9.80;1.70;;;;;;;11.32;100.00;102014.78;4978336;28;20794;-68
2023/05/17 05:10:09;;;;;;;11.77;2.08;;;;;;;11.23;100.00;102004.50;4978806;28;20054;-68
2023/05/17 05:12:36;;;;;;;9.85;2.00;;;;;;;11.09;100.00;101996.91;4993972;28;20058;-67
2023/05/17 05:15:04;;;;;;;9.70;1.70;;;;;;;11.20;100.00;102016.75;4992406;28;20046;-67
2023/05/17 05:17:30;;;;;;;7.97;1.67;;;;;;;11.34;100.00;102008.63;4993595;28;21185;-68
2023/05/17 05:19:57;;;;;;;7.88;1.55;;;;;;;11.42;100.00;102021.59;4993646;28;20062;-68
2023/05/17 05:22:24;;;;;;;9.45;1.50;;;;;;;11.53;100.00;102024.84;4994272;28;20050;-68
2023/05/17 05:24:51;;;;;;;9.98;1.55;;;;;;;11.50;100.00;102024.03;4992056;28;20074;-68
2023/05/17 05:27:18;;;;;;;5.30;1.52;;;;;;;11.49;100.00;102027.53;4992049;28;20053;-68
2023/05/17 05:29:45;;;;;;;8.23;1.92;;;;;;;11.48;100.00;102034.56;4993333;28;20058;-68
2023/05/17 05:32:12;;;;;;;14.27;2.17;;;;;;;11.51;100.00;102029.25;4993037;28;20096;-68
2023/05/17 05:34:38;;;;;;;4.93;1.40;;;;;;;11.62;100.00;102033.41;4993207;28;20519;-68
2023/05/17 05:37:05;;;;;;;6.00;1.20;;;;;;;11.55;100.00;102012.56;4993828;28;20058;-68
2023/05/17 05:39:32;;;;;;;7.57;1.58;;;;;;;11.68;100.00;102049.88;4993765;28;20511;-68
2023/05/17 05:41:59;;;;;;;9.10;1.50;;;;;;;11.63;100.00;102043.00;4973250;28;20046;-68
2023/05/17 05:44:26;;;;;;;11.48;2.13;;;;;;;11.66;100.00;102028.06;4989886;28;20146;-68
2023/05/17 05:46:52;;;;;;;9.18;1.98;;;;;;;11.72;100.00;102045.41;4992022;28;20053;-68
2023/05/17 05:49:19;;;;;;;8.77;1.73;;;;;;;11.66;100.00;102040.31;4990863;28;20057;-68
2023/05/17 05:51:46;;;;;;;7.40;1.88;;;;;;;11.71;100.00;102039.31;4988820;28;20050;-68
2023/05/17 05:54:13;;;;;;;12.32;2.08;;;;;;;11.92;100.00;102039.78;4985237;28;20559;-68
2023/05/17 05:56:39;;;;;;;10.38;2.10;;;;;;;11.83;100.00;102032.06;4985748;28;20103;-68
2023/05/17 05:59:06;;;;;;;7.38;1.83;;;;;;;11.92;100.00;102047.66;4987243;28;20069;-68
2023/05/17 06:01:33;;;;;;;7.70;1.80;;;;;;;11.93;100.00;102041.50;4993191;28;20396;-68
2023/05/17 06:04:00;;;;;;;9.52;1.77;;;;;;;11.91;100.00;102035.44;4986318;28;20082;-68
2023/05/17 06:06:27;;;;;;;10.50;1.58;;;;;;;11.91;100.00;102038.91;4976840;28;20134;-68
2023/05/17 06:08:54;;;;;;;9.27;1.83;;;;;;;11.85;100.00;102048.66;4996328;28;20582;-68
2023/05/17 06:11:25;;;;;;;9.77;1.50;;;;;;;12.07;100.00;102049.91;4994773;28;20117;-68
2023/05/17 06:13:51;;;;;;;10.27;1.77;;;;;;;11.96;100.00;102039.66;4988715;28;20050;-68
2023/05/17 06:16:18;;;;;;;11.10;2.05;;;;;;;11.83;100.00;102042.56;4984385;28;20097;-68
2023/05/17 06:18:45;;;;;;;11.68;2.22;;;;;;;12.01;100.00;102050.06;4990060;28;20051;-67
2023/05/17 06:21:17;;;;;;;6.47;1.67;;;;;;;12.07;100.00;102043.81;4991841;28;20085;-67
2023/05/17 06:23:44;;;;;;;8.68;1.60;;;;;;;12.27;100.00;102049.47;4991766;28;20495;-67
2023/05/17 06:26:11;;;;;;;7.30;1.60;;;;;;;12.32;100.00;102020.47;4970715;28;20137;-67
2023/05/17 06:28:37;;;;;;;8.40;2.58;;;;;;;12.41;100.00;102054.41;4986516;28;20058;-68
2023/05/17 06:31:04;;;;;;;7.72;1.73;;;;;;;12.41;100.00;102033.41;4992288;28;20093;-68
2023/05/17 06:33:31;;;;;;;10.15;1.88;;;;;;;12.39;100.00;102055.31;4990449;28;20096;-68
2023/05/17 06:35:58;;;;;;;10.07;1.90;;;;;;;12.49;100.00;102043.69;4990622;28;20093;-68
2023/05/17 06:38:28;;;;;;;13.15;1.98;;;;;;;12.25;100.00;102039.88;4991550;28;20058;-68
2023/05/17 06:40:57;;;;;;;7.35;2.25;;;;;;;12.46;100.00;102041.13;4990507;28;20048;-68
2023/05/17 06:43:24;;;;;;;5.97;1.50;;;;;;;12.40;100.00;102031.66;4992269;28;20054;-68
2023/05/17 06:45:50;;;;;;;8.02;1.83;;;;;;;12.39;100.00;102035.16;4991344;28;20058;-69
2023/05/17 06:48:17;;;;;;;10.25;1.83;;;;;;;11.99;100.00;102033.50;4991910;28;20057;-68
2023/05/17 06:50:44;;;;;;;10.02;2.03;;;;;;;12.31;100.00;102016.97;4974115;28;20038;-68
2023/05/17 06:53:11;;;;;;;12.43;1.95;;;;;;;12.45;100.00;102027.16;4990687;28;20129;-68
2023/05/17 06:55:39;;;;;;;12.57;2.50;;;;;;;12.50;100.00;102038.41;4990120;28;20516;-68
2023/05/17 06:58:10;;;;;;;8.43;1.85;;;;;;;12.43;100.00;102028.97;4974655;28;20050;-68
2023/05/17 07:00:37;;;;;;;9.77;2.20;;;;;;;12.56;100.00;102033.91;4990765;28;20054;-69
2023/05/17 07:03:04;;;;;;;11.20;2.45;;;;;;;12.76;100.00;102047.38;4990683;28;20480;-68
2023/05/17 07:05:31;;;;;;;7.65;1.88;;;;;;;12.79;100.00;102047.31;4973740;28;20057;-68
2023/05/17 07:07:59;;;;;;;12.57;1.98;;;;;;;12.46;100.00;102049.03;4991250;28;20524;-69
2023/05/17 07:10:25;;;;;;;11.80;2.20;;;;;;;12.72;100.00;102035.22;4991637;28;20060;-68
2023/05/17 07:12:52;;;;;;;13.18;2.75;;;;;;;12.87;100.00;102039.22;4990109;28;20100;-68
2023/05/17 07:15:19;;;;;;;8.50;1.88;;;;;;;12.87;100.00;102031.31;4990408;28;20050;-68
2023/05/17 07:17:46;;;;;;;8.35;2.58;;;;;;;12.81;100.00;102027.09;4989920;28;20133;-68
2023/05/17 07:20:13;;;;;;;11.95;1.83;;;;;;;13.31;100.00;102018.75;4989424;28;20194;-68
2023/05/17 07:22:40;;;;;;;5.40;1.58;;;;;;;13.57;100.00;102018.00;4991406;28;20061;-68
2023/05/17 07:25:07;;;;;;;9.40;1.90;;;;;;;13.87;100.00;102018.00;4989801;28;20054;-69
2023/05/17 07:27:34;;;;;;;11.90;2.63;;;;;;;13.98;100.00;102028.19;4977856;28;20050;-68
2023/05/17 07:30:02;;;;;;;11.77;2.10;;;;;;;14.56;100.00;102022.81;4985315;28;20487;-69
2023/05/17 07:32:29;;;;;;;10.57;2.45;;;;;;;15.22;100.00;102022.28;4970567;28;20362;-69
2023/05/17 07:34:55;;;;;;;11.70;2.20;;;;;;;15.26;100.00;102011.53;4981932;28;20335;-69
2023/05/17 07:37:22;;;;;;;9.55;1.90;;;;;;;15.49;100.00;102031.81;4990278;28;20069;-69
2023/05/17 07:39:49;;;;;;;8.27;2.20;;;;;;;15.10;100.00;102003.38;4990448;28;20056;-69
2023/05/17 07:42:16;;;;;;;12.18;2.38;;;;;;;15.17;100.00;102030.34;4989907;28;20050;-69
2023/05/17 07:44:43;;;;;;;15.95;2.67;;;;;;;15.43;100.00;102031.19;4990397;28;20134;-69
2023/05/17 07:47:10;;;;;;;9.93;2.20;;;;;;;15.80;100.00;102035.94;4991213;28;20050;-69
2023/05/17 07:49:37;;;;;;;9.70;1.67;;;;;;;16.37;100.00;102015.16;4990628;28;20058;-69
2023/05/17 07:52:04;;;;;;;8.70;1.70;;;;;;;16.70;100.00;102018.19;4973098;28;20093;-69
2023/05/17 07:54:30;;;;;;;15.18;3.33;;;;;;;15.77;100.00;102022.88;4989819;28;20074;-69
2023/05/17 07:56:58;;;;;;;9.07;1.98;;;;;;;17.08;100.00;102017.44;4990987;28;20456;-69
2023/05/17 07:59:25;;;;;;;11.07;2.10;;;;;;;16.84;100.00;102012.31;4990930;28;20046;-69
2023/05/17 08:01:52;;;;;;;11.60;2.08;;;;;;;17.37;100.00;102033.78;4996856;28;20050;-68
2023/05/17 08:04:19;;;;;;;10.25;2.20;;;;;;;17.66;100.00;102019.22;4993289;28;20050;-68
2023/05/17 08:06:47;;;;;;;8.15;1.80;;;;;;;17.89;100.00;102025.25;4973477;28;20073;-68
2023/05/17 08:09:18;;;;;;;11.38;2.10;;;;;;;18.11;100.00;102025.06;4990008;28;20065;-68
2023/05/17 08:11:45;;;;;;;7.95;1.80;;;;;;;17.78;100.00;102021.28;4989897;28;20049;-67
2023/05/17 08:14:15;;;;;;;8.07;1.85;;;;;;;17.72;100.00;102032.16;4989028;28;20050;-68
2023/05/17 08:16:44;;;;;;;4.65;1.30;;;;;;;18.05;100.00;102023.56;4970407;28;20050;-68
2023/05/17 08:19:13;;;;;;;7.07;1.52;;;;;;;18.10;100.00;102020.72;4990370;28;20089;-68
2023/05/17 08:21:41;;;;;;;10.27;2.03;;;;;;;18.19;100.00;102028.22;4973629;28;20309;-68
2023/05/17 08:24:08;;;;;;;6.55;1.58;;;;;;;18.11;100.00;102031.22;4989994;28;20499;-67
2023/05/17 08:26:38;;;;;;;17.42;2.00;;;;;;;18.29;100.00;102021.53;4978964;28;20046;-68
2023/05/17 08:29:05;;;;;;;7.05;1.80;;;;;;;18.02;100.00;102019.31;4978650;28;20057;-68
2023/05/17 08:31:32;;;;;;;6.05;1.20;;;;;;;17.73;100.00;102012.69;4989926;28;20788;-68
2023/05/17 08:33:59;;;;;;;6.85;1.70;;;;;;;18.54;100.00;102009.69;4987255;28;20056;-68
2023/05/17 08:36:27;;;;;;;13.43;2.10;;;;;;;18.77;100.00;102019.97;4988872;28;20078;-68
2023/05/17 08:38:54;;;;;;;8.32;1.58;;;;;;;18.29;100.00;102010.03;4989243;28;20186;-69
2023/05/17 08:41:21;;;;;;;7.70;1.60;;;;;;;18.05;100.00;102020.06;4989689;28;20141;-69
2023/05/17 08:43:49;;;;;;;11.68;2.15;;;;;;;18.05;100.00;102022.72;4988943;28;20481;-68
2023/05/17 08:46:20;;;;;;;7.32;1.70;;;;;;;18.01;100.00;102027.31;4994083;28;20050;-69
2023/05/17 08:48:52;;;;;;;7.25;1.60;;;;;;;18.53;100.00;102019.41;4992791;28;20046;-68
2023/05/17 08:51:20;;;;;;;7.03;1.90;;;;;;;18.92;100.00;102009.50;4994187;28;20073;-68
2023/05/17 08:53:49;;;;;;;10.52;2.15;;;;;;;18.95;100.00;102012.00;4994093;28;20096;-68
2023/05/17 08:56:20;;;;;;;8.77;1.95;;;;;;;19.01;100.00;102021.44;4993595;28;20046;-68
2023/05/17 08:58:51;;;;;;;5.10;1.30;;;;;;;19.32;100.00;102008.25;4993844;28;20054;-68
2023/05/17 09:01:23;;;;;;;5.95;1.55;;;;;;;19.18;100.00;102017.91;4993734;28;20056;-68
2023/05/17 09:03:53;;;;;;;7.82;2.00;;;;;;;19.13;100.00;102016.34;4993142;28;20096;-68
2023/05/17 09:06:21;;;;;;;10.85;2.17;;;;;;;19.23;100.00;102029.09;4976230;28;20550;-68
2023/05/17 09:08:53;;;;;;;5.75;1.45;;;;;;;19.13;100.00;102007.53;4993841;28;20050;-68
2023/05/17 09:11:29;;;;;;;7.47;1.77;;;;;;;19.51;100.00;102009.88;4994608;28;20061;-68
2023/05/17 09:13:58;;;;;;;8.45;1.67;;;;;;;19.65;100.00;102006.47;4992494;28;20042;-68
2023/05/17 09:16:30;;;;;;;4.88;1.40;;;;;;;19.69;100.00;101995.59;4994180;28;20124;-69
2023/05/17 09:18:57;;;;;;;6.60;1.52;;;;;;;19.52;100.00;102004.47;4993818;28;20046;-68
2023/05/17 09:21:26;;;;;;;5.07;1.40;;;;;;;19.03;100.00;102011.59;4992613;28;20134;-68
2023/05/17 09:23:54;;;;;;;5.88;1.60;;;;;;;19.12;100.00;102005.78;4993887;28;20046;-68
2023/05/17 09:26:43;;;;;;;10.02;1.90;;;;;;;18.45;100.00;102002.16;4978385;28;20452;-68
2023/05/17 09:29:12;;;;;;;9.27;1.80;;;;;;;19.03;100.00;101999.19;4992531;28;20054;-68
2023/05/17 09:31:39;;;;;;;7.03;1.63;;;;;;;19.64;100.00;101992.31;4993899;28;20146;-68
2023/05/17 09:34:07;;;;;;;7.05;1.65;;;;;;;19.63;100.00;102000.38;4992751;28;20054;-68
2023/05/17 09:36:36;;;;;;;12.80;2.30;;;;;;;18.68;100.00;101993.03;4993667;28;20088;-68
2023/05/17 09:39:05;;;;;;;9.30;1.83;;;;;;;19.31;100.00;101993.22;4993209;28;20133;-68
2023/05/17 09:41:40;;;;;;;12.75;2.20;;;;;;;19.16;100.00;101983.47;4995347;28;20054;-68
2023/05/17 09:44:08;;;;;;;11.00;2.30;;;;;;;18.79;100.00;101980.09;4975277;28;20054;-68
2023/05/17 09:46:40;;;;;;;11.48;2.38;;;;;;;17.75;100.00;101971.09;4994413;28;20050;-68
2023/05/17 09:49:08;;;;;;;7.43;2.25;;;;;;;18.23;100.00;101975.91;4992501;28;20133;-68
2023/05/17 09:51:40;;;;;;;13.43;2.45;;;;;;;18.47;100.00;101979.97;4994245;28;20157;-68
2023/05/17 09:54:08;;;;;;;12.73;2.50;;;;;;;18.50;100.00;101979.81;4992345;28;20055;-68
2023/05/17 09:56:36;;;;;;;13.07;2.30;;;;;;;18.27;100.00;101965.03;4978731;28;20054;-68
2023/05/17 09:59:09;;;;;;;10.52;2.22;;;;;;;18.40;100.00;101970.59;4997102;28;20065;-68
2023/05/17 10:01:39;;;;;;;;;;;;;;;18.15;100.00;101976.25;4994841;28;20052;-68
2023/05/17 10:04:08;;;;;;;8.63;2.03;;;;;;;18.46;100.00;101966.78;4998704;28;20028;-68
2023/05/17 10:06:39;;;;;;;8.00;2.15;;;;;;;19.13;100.00;101973.84;4993297;28;20050;-68
2023/05/17 10:09:12;;;;;;;11.63;2.38;;;;;;;19.11;100.00;101956.31;4993791;28;20054;-68
2023/05/17 10:11:41;;;;;;;11.00;2.50;;;;;;;18.71;100.00;101961.91;4992908;28;20046;-68
2023/05/17 10:14:21;;;;;;;13.60;2.50;;;;;;;18.21;100.00;101965.38;4993263;28;20058;-68
2023/05/17 10:16:49;;;;;;;17.10;2.75;;;;;;;18.79;100.00;101953.56;4975734;28;20042;-68
2023/05/17 10:19:19;;;;;;;16.40;3.13;;;;;;;18.99;100.00;101968.44;4992383;28;20054;-68
2023/05/17 10:21:48;;;;;;;10.20;2.22;;;;;;;18.85;100.00;101965.66;4992653;28;20606;-68
2023/05/17 10:24:16;;;;;;;8.70;2.50;;;;;;;19.01;100.00;101977.16;4988934;28;20046;-67
2023/05/17 10:26:43;;;;;;;11.98;2.80;;;;;;;18.29;100.00;101968.50;4979832;28;20051;-67
2023/05/17 10:29:10;;;;;;;12.88;2.50;;;;;;;17.21;100.00;101973.66;4991165;28;20054;-68
2023/05/17 10:31:41;;;;;;;13.48;2.78;;;;;;;16.82;100.00;101974.47;4991685;28;20050;-68
2023/05/17 10:34:10;;;;;;;14.88;2.50;;;;;;;17.45;100.00;101968.13;4991567;28;20046;-68
2023/05/17 10:36:39;;;;;;;14.88;2.70;;;;;;;18.05;100.00;101967.06;4993181;28;20054;-68
2023/05/17 10:39:08;;;;;;;15.25;2.95;;;;;;;17.77;100.00;101957.78;4992370;28;20493;-68
2023/05/17 10:41:40;;;;;;;15.45;2.50;;;;;;;17.76;100.00;101959.59;4992795;28;20134;-68
2023/05/17 10:44:11;;;;;;;12.07;2.42;;;;;;;18.02;100.00;101962.78;4991694;28;20452;-68
2023/05/17 10:46:38;;;;;;;13.15;3.10;;;;;;;17.55;100.00;101956.19;4991770;28;20407;-68
2023/05/17 10:49:05;;;;;;;14.40;3.05;;;;;;;17.40;100.00;101957.75;4989892;28;20052;-68
2023/05/17 10:51:36;;;;;;;13.70;3.03;;;;;;;17.76;100.00;101962.25;4992500;28;20043;-68
2023/05/17 10:54:17;;;;;;;19.15;2.80;;;;;;;17.95;100.00;101964.00;4991482;28;20361;-68
2023/05/17 10:56:49;;;;;;;16.60;3.40;;;;;;;17.38;100.00;101954.31;4979628;28;20124;-68
2023/05/17 10:59:28;;;;;;;14.68;3.20;;;;;;;17.37;100.00;101960.56;4992111;28;20061;-68
2023/05/17 11:02:05;;;;;;;12.85;3.03;;;;;;;17.33;100.00;101951.03;4981221;28;20722;-69
2023/05/17 11:04:38;;;;;;;16.15;2.80;;;;;;;17.53;100.00;101951.88;4991213;28;20129;-68
2023/05/17 11:07:28;;;;;;;17.15;2.75;;;;;;;17.68;100.00;101959.09;4991229;28;20148;-68
2023/05/17 11:10:04;;;;;;;17.08;2.95;;;;;;;17.39;100.00;101949.91;4991245;28;20050;-68
2023/05/17 11:12:41;;;;;;;14.85;2.65;;;;;;;17.17;100.00;101945.56;4990772;28;20051;-67
2023/05/17 11:15:13;;;;;;;10.23;2.25;;;;;;;17.48;100.00;101930.06;4990674;28;20050;-68
2023/05/17 11:17:43;;;;;;;9.30;2.25;;;;;;;17.96;100.00;101940.09;4991982;28;20456;-68
2023/05/17 11:20:25;;;;;;;12.40;2.45;;;;;;;17.80;100.00;101944.41;4991629;28;20128;-68